Terminal Aerodrome Forecast
Issued by NWS

Home | Current Version | Previous Version | Text Only | Print | Product List | Glossary On
Versions: 1 2 3 4 5 6 7 8 9 10 11 12 13 14 15 16
000
FTUS45 KTFX 250500
TAFGTF
TAF
KGTF 250538Z 2506/2606 02015G25KT 2SM -SN SCT002 OVC007
      TEMPO 2506/2508 1/2SM SN BLSN VV002
     FM250800 36011KT 5SM -SN BR SCT008 OVC015
      TEMPO 2508/2512 2SM -SN BR BKN008
     FM251600 VRB06KT 6SM BR SCT010 BKN020
     FM252100 20011KT P6SM SCT025 SCT070=

USA.gov is the U.S. government's official web portal to all federal, state and local government web resources and services.